Wellington Zouch Saint, New South Wales

12:10 AM EST on July 31, 2014 (GMT +1000)
Dubbo (YSDU) Elev 902 ft | 32.22 °S, 148.57 °E | Change Station

Current weather conditions updated 40 minutes ago

Clear
Clear
46 °F
Feels Like 46 °F
N
0
Wind Variable Wind from North

Today is forecast to be nearly the same temperature as yesterday.

Today
High -- | Low -- °F
--% Chance of Precip.
Yesterday
High -- | Low -- °F
Precip. -- in
6:55 AM 5:26 PM
Waxing Crescent, 12% visible
Pressure 30.09 in
Visibility 6.2 miles
Clouds
Dew Point 41 °F
Humidity 81%
Rainfall 0.00 in
Snow Depth Not available.
UV Not available.
Pollen Not available.
Air Quality Not available.
Flu Activity Not available.
METAR YSDU 301330Z AUTO 00000KT 9999 // NCD 08/05 Q1019

More Conditions Fewer Conditions

Pressure 30.09 in
Visibility 6.2 miles
Clouds
Dew Point 41 °F
Humidity 81%
Rainfall 0.00 in
Snow Depth Not available.
UV Not available.
Pollen Not available.
Air Quality Not available.
Flu Activity Not available.
METAR YSDU 301330Z AUTO 00000KT 9999 // NCD 08/05 Q1019

More Conditions Fewer Conditions

10-Day Weather Forecast

Almanac

Astronomy

Jul. 31, 2014 Rise Set
Actual Time 6:55 AM EST 5:26 PM EST
Civil Twilight 6:29 AM EST 5:52 PM EST
Nautical Twilight 5:59 AM EST 6:21 PM EST
Astronomical Twilight 5:30 AM EST 6:51 PM EST
Moon 8:57 AM EST (7/31) 9:17 PM EST (7/31)
Length of Visible Light 11h 22m
Length of Day
10h 30m
Tomorrow will be 1m 25s longer.
Waxing Crescent, 12% of the Moon is Illuminated
Jul 30
Waxing Crescent
Aug 3
First Quarter
Aug 10
Full
Aug 17
Last Quarter
Aug 25
New

Yesterday's Extremes

Country Highs Country Lows

Community

WunderPhotos

Upload Photos

1,739,086 photos uploaded!

Nearby

Snow Depth

Not available.

Earthquake Activity

City Distance Mag. Time & Date
No recent earthquake activity has been reported nearby.
Minimum magnitude displayed is 2.5.

Coastal Water Temperatures

Place Temperature
No Stations Reporting

Nearby Weather Stations

There are no personal weather stations in this area.